地図

経路データ

SID SEASON NUMBER BASIN SUBBASIN NAME ISO_TIME NATURE LAT LON WMO_WIND WMO_PRES WMO_AGENCY TRACK_TYPE DIST2LAND LANDFALL IFLAG USA_AGENCY USA_ATCF_ID USA_LAT USA_LON USA_RECORD USA_STATUS USA_WIND USA_PRES USA_SSHS USA_R34_NE USA_R34_SE USA_R34_SW USA_R34_NW USA_R50_NE USA_R50_SE USA_R50_SW USA_R50_NW USA_R64_NE USA_R64_SE USA_R64_SW USA_R64_NW USA_POCI USA_ROCI USA_RMW USA_EYE TOKYO_LAT TOKYO_LON TOKYO_GRADE TOKYO_WIND TOKYO_PRES TOKYO_R50_DIR TOKYO_R50_LONG TOKYO_R50_SHORT TOKYO_R30_DIR TOKYO_R30_LONG TOKYO_R30_SHORT TOKYO_LAND CMA_LAT CMA_LON CMA_CAT CMA_WIND CMA_PRES HKO_LAT HKO_LON HKO_CAT HKO_WIND HKO_PRES NEWDELHI_LAT NEWDELHI_LON NEWDELHI_GRADE NEWDELHI_WIND NEWDELHI_PRES NEWDELHI_CI NEWDELHI_DP NEWDELHI_POCI REUNION_LAT REUNION_LON REUNION_TYPE REUNION_WIND REUNION_PRES REUNION_TNUM REUNION_CI REUNION_RMW REUNION_R34_NE REUNION_R34_SE REUNION_R34_SW REUNION_R34_NW REUNION_R50_NE REUNION_R50_SE REUNION_R50_SW REUNION_R50_NW REUNION_R64_NE REUNION_R64_SE REUNION_R64_SW REUNION_R64_NW BOM_LAT BOM_LON BOM_TYPE BOM_WIND BOM_PRES BOM_TNUM BOM_CI BOM_RMW BOM_R34_NE BOM_R34_SE BOM_R34_SW BOM_R34_NW BOM_R50_NE BOM_R50_SE BOM_R50_SW BOM_R50_NW BOM_R64_NE BOM_R64_SE BOM_R64_SW BOM_R64_NW BOM_ROCI BOM_POCI BOM_EYE BOM_POS_METHOD BOM_PRES_METHOD NADI_LAT NADI_LON NADI_CAT NADI_WIND NADI_PRES WELLINGTON_LAT WELLINGTON_LON WELLINGTON_WIND WELLINGTON_PRES DS824_LAT DS824_LON DS824_STAGE DS824_WIND DS824_PRES TD9636_LAT TD9636_LON TD9636_STAGE TD9636_WIND TD9636_PRES TD9635_LAT TD9635_LON TD9635_WIND TD9635_PRES TD9635_ROCI NEUMANN_LAT NEUMANN_LON NEUMANN_CLASS NEUMANN_WIND NEUMANN_PRES MLC_LAT MLC_LON MLC_CLASS MLC_WIND MLC_PRES USA_GUST BOM_GUST BOM_GUST_PER REUNION_GUST REUNION_GUST_PER USA_SEAHGT USA_SEARAD_NE USA_SEARAD_SE USA_SEARAD_SW USA_SEARAD_NW STORM_SPEED STORM_DIR
1976074S11118 1976 32 SI WA LINDA 1976-03-14 00:00:00 NR -11.1000 118.000 20 1004 bom main 197 185 ______O_______ -1 -11.1000 118.000 20 1004 4 104
1976074S11118 1976 32 SI WA LINDA 1976-03-14 03:00:00 NR -11.1500 118.205 main 194 184 ______P_______ -1 -11.1500 118.205 20 1004 4 104
1976074S11118 1976 32 SI WA LINDA 1976-03-14 06:00:00 TS -11.2000 118.400 20 1004 bom main 184 176 ______O_____O_ -1 -11.2000 118.400 20 1004 -11.2000 118.400 TC 20 1004 4 104
1976074S11118 1976 32 SI WA LINDA 1976-03-14 09:00:00 TS -11.2500 118.607 main 176 176 ______P_____P_ -1 -11.2500 118.585 20 1004 -11.2500 118.650 TC 20 1004 4 103
1976074S11118 1976 32 SI WA LINDA 1976-03-14 12:00:00 TS -11.3000 118.843 20 1004 bom main 180 171 ______O_____O_ -1 -11.3000 118.800 20 1004 -11.3000 118.900 TC 20 1004 5 101
1976074S11118 1976 32 SI WA LINDA 1976-03-14 15:00:00 TS -11.3500 119.118 main 171 160 ______P_____P_ -1 -11.3500 119.085 20 1004 -11.3500 119.150 TC 20 1004 6 100
1976074S11118 1976 32 SI WA LINDA 1976-03-14 18:00:00 TS -11.4000 119.400 20 1004 bom main 160 149 ______O_____O_ -1 -11.4000 119.400 20 1004 -11.4000 119.400 TC 20 1004 5 100
1976074S11118 1976 32 SI WA LINDA 1976-03-14 21:00:00 TS -11.4462 119.664 main 145 145 ______P_____P_ -1 -11.4425 119.700 20 1003 -11.4499 119.628 TC 22 1003 5 101
1976074S11118 1976 32 SI WA LINDA 1976-03-15 00:00:00 TS -11.5000 119.950 20 1003 bom main 145 138 ______O_____O_ -1 -11.5000 120.000 20 1003 -11.5000 119.900 TC 25 1003 6 102
1976074S11118 1976 32 SI WA LINDA 1976-03-15 03:00:00 TS -11.5712 120.278 main 147 145 ______P_____P_ -1 -11.5999 120.277 22 1002 -11.5425 120.278 TC 25 1002 7 102
1976074S11118 1976 32 SI WA LINDA 1976-03-15 06:00:00 TS -11.6500 120.650 25 1002 bom main 147 147 ______O_____O_ -1 -11.7000 120.600 25 1002 1.50000 -11.6000 120.700 TC 25 1002 8 101
1976074S11118 1976 32 SI WA LINDA 1976-03-15 09:00:00 TS -11.7213 121.068 main 169 169 ______P_____P_ -1 -11.7501 121.035 25 1001 -11.6924 121.100 TC 27 1001 8 100
1976074S11118 1976 32 SI WA LINDA 1976-03-15 12:00:00 TS -11.8000 121.500 25 1000 bom main 199 199 ______O_____O_ -1 -11.8000 121.500 25 1000 2.00000 -11.8000 121.500 TC 30 1000 9 102
1976074S11118 1976 32 SI WA LINDA 1976-03-15 15:00:00 TS -11.9000 121.915 main 231 221 ______P_____P_ -1 -11.8924 121.915 30 999 -11.9075 121.915 TC 32 999 8 104
1976074S11118 1976 32 SI WA LINDA 1976-03-15 18:00:00 TS -12.0000 122.300 35 998 bom main 221 209 ______O_____O_ -1 -12.0000 122.300 35 998 2.50000 -12.0000 122.300 TC 35 998 7 106
1976074S11118 1976 32 SI WA LINDA 1976-03-15 21:00:00 TS -12.0898 122.599 main 214 201 ______P_____P_ -1 -12.1073 122.628 37 996 -12.0722 122.570 TC 37 996 7 103
1976074S11118 1976 32 SI WA LINDA 1976-03-16 00:00:00 TS -12.1500 122.950 40 995 bom main 198 198 ______O_____O_ -1 -12.2000 123.000 40 995 2.50000 -12.1000 122.900 TC 40 995 9 96
1976074S11118 1976 32 SI WA LINDA 1976-03-16 03:00:00 TS -12.1724 123.465 main 201 201 ______P_____P_ -1 -12.2573 123.490 40 995 -12.0875 123.440 TC 40 995 11 90
1976074S11118 1976 32 SI WA LINDA 1976-03-16 06:00:00 TS -12.1500 124.100 40 995 bom main 193 193 ______O_____O_ -1 -12.3000 124.100 40 995 2.50000 -12.0000 124.100 TC 40 995 13 85
1976074S11118 1976 32 SI WA LINDA 1976-03-16 09:00:00 TS -12.0638 124.806 main 219 214 ______P_____P_ -1 -12.3426 124.835 37 996 -11.7849 124.778 TC 37 996 14 84
1976074S11118 1976 32 SI WA LINDA 1976-03-16 12:00:00 TS -12.0000 125.550 35 998 bom main 230 215 ______O_____O_ -1 -12.4000 125.600 35 998 2.50000 -11.6000 125.500 TC 35 997 14 89
1976074S11118 1976 32 SI WA LINDA 1976-03-16 15:00:00 TS -12.0447 126.246 main 215 190 ______P_____P_ -1 -12.4920 126.235 32 998 -11.5975 126.257 TC 32 998 14 96
1976074S11118 1976 32 SI WA LINDA 1976-03-16 18:00:00 TS -12.1500 126.950 30 999 bom main 190 176 ______O_____O_ -1 -12.6000 126.900 30 999 2.00000 -11.7000 127.000 TC 30 999 14 99
1976074S11118 1976 32 SI WA LINDA 1976-03-16 21:00:00 TS -12.2707 127.648 main 176 176 ______P_____P_ -1 -12.6773 127.698 30 999 -11.8642 127.597 TC 30 999 15 100
1976074S11118 1976 32 SI WA LINDA 1976-03-17 00:00:00 TS -12.4000 128.450 30 999 bom main 186 94 ______O_____O_ -1 -12.8000 128.600 30 999 2.00000 -12.0000 128.300 TC 30 999 18 98
1976074S11118 1976 32 SI WA LINDA 1976-03-17 03:00:00 TS -12.5087 129.442 main 94 10 ______P_____P_ -1 -13.0208 129.579 30 999 -11.9965 129.305 TC 32 998 21 96
1976074S11118 1976 32 SI WA LINDA 1976-03-17 06:00:00 TS -12.6000 130.550 30 999 bom main 0 ______O_____O_ -1 -13.3000 130.600 30 999 2.00000 -11.9000 130.500 TC 35 997 22 95

IBTrACS Databaseについて

本データベースは、米国NOAAが公開する1842年以降の世界の熱帯低気圧のベストトラックデータアーカイブInternational Best Track Archive for Climate Stewardship (IBTrACS)を、ウェブで閲覧しやすい形式に変換したものです。

最終更新日:2021-12-08